sensor_id;sensor_type;location;lat;lon;timestamp;P1;durP1;ratioP1;P2;durP2;ratioP2
79005;SDS011;69202;45.498;-73.582;2023-08-24T00:00:57;13.50;;;6.57;;
79005;SDS011;69202;45.498;-73.582;2023-08-24T00:03:22;14.60;;;6.30;;
79005;SDS011;69202;45.498;-73.582;2023-08-24T00:05:48;12.63;;;6.18;;
79005;SDS011;69202;45.498;-73.582;2023-08-24T00:08:14;11.32;;;6.90;;
79005;SDS011;69202;45.498;-73.582;2023-08-24T00:10:42;11.45;;;6.72;;
79005;SDS011;69202;45.498;-73.582;2023-08-24T00:13:09;9.90;;;6.28;;
79005;SDS011;69202;45.498;-73.582;2023-08-24T00:15:35;6.32;;;4.88;;
79005;SDS011;69202;45.498;-73.582;2023-08-24T00:18:01;12.93;;;6.10;;
79005;SDS011;69202;45.498;-73.582;2023-08-24T00:20:28;17.00;;;6.60;;
79005;SDS011;69202;45.498;-73.582;2023-08-24T00:22:54;10.25;;;6.50;;
79005;SDS011;69202;45.498;-73.582;2023-08-24T00:25:19;10.93;;;6.80;;
79005;SDS011;69202;45.498;-73.582;2023-08-24T00:27:45;8.73;;;6.25;;
79005;SDS011;69202;45.498;-73.582;2023-08-24T00:30:11;10.48;;;6.60;;
79005;SDS011;69202;45.498;-73.582;2023-08-24T00:32:37;11.57;;;6.60;;
79005;SDS011;69202;45.498;-73.582;2023-08-24T00:35:04;9.35;;;5.28;;
79005;SDS011;69202;45.498;-73.582;2023-08-24T00:37:32;15.20;;;6.80;;
79005;SDS011;69202;45.498;-73.582;2023-08-24T00:40:05;10.10;;;6.70;;
79005;SDS011;69202;45.498;-73.582;2023-08-24T00:42:38;16.67;;;7.07;;
79005;SDS011;69202;45.498;-73.582;2023-08-24T00:45:09;11.27;;;7.45;;
79005;SDS011;69202;45.498;-73.582;2023-08-24T00:47:39;11.40;;;7.75;;
79005;SDS011;69202;45.498;-73.582;2023-08-24T00:50:08;8.07;;;5.82;;
79005;SDS011;69202;45.498;-73.582;2023-08-24T00:52:35;13.10;;;8.02;;
79005;SDS011;69202;45.498;-73.582;2023-08-24T00:55:04;9.68;;;7.43;;
79005;SDS011;69202;45.498;-73.582;2023-08-24T00:57:31;11.32;;;7.05;;
79005;SDS011;69202;45.498;-73.582;2023-08-24T00:59:58;14.60;;;7.30;;
79005;SDS011;69202;45.498;-73.582;2023-08-24T01:02:27;12.00;;;6.32;;
79005;SDS011;69202;45.498;-73.582;2023-08-24T01:04:53;10.60;;;7.38;;
79005;SDS011;69202;45.498;-73.582;2023-08-24T01:07:19;11.77;;;6.95;;
79005;SDS011;69202;45.498;-73.582;2023-08-24T01:09:45;16.08;;;7.85;;
79005;SDS011;69202;45.498;-73.582;2023-08-24T01:17:48;10.63;;;6.35;;
79005;SDS011;69202;45.498;-73.582;2023-08-24T01:20:16;11.10;;;6.57;;
79005;SDS011;69202;45.498;-73.582;2023-08-24T01:27:59;6.43;;;4.93;;
79005;SDS011;69202;45.498;-73.582;2023-08-24T01:30:28;14.15;;;6.35;;
79005;SDS011;69202;45.498;-73.582;2023-08-24T01:32:56;11.63;;;5.97;;
79005;SDS011;69202;45.498;-73.582;2023-08-24T01:35:22;10.93;;;5.93;;
79005;SDS011;69202;45.498;-73.582;2023-08-24T01:37:48;11.90;;;6.10;;
79005;SDS011;69202;45.498;-73.582;2023-08-24T01:40:16;12.27;;;5.50;;
79005;SDS011;69202;45.498;-73.582;2023-08-24T01:42:58;8.70;;;5.90;;
79005;SDS011;69202;45.498;-73.582;2023-08-24T01:45:29;13.77;;;6.22;;
79005;SDS011;69202;45.498;-73.582;2023-08-24T01:47:56;9.18;;;5.63;;
79005;SDS011;69202;45.498;-73.582;2023-08-24T01:50:24;13.25;;;5.95;;
79005;SDS011;69202;45.498;-73.582;2023-08-24T01:52:50;14.82;;;6.10;;
79005;SDS011;69202;45.498;-73.582;2023-08-24T01:55:18;14.27;;;6.00;;
79005;SDS011;69202;45.498;-73.582;2023-08-24T01:57:44;9.65;;;6.00;;
79005;SDS011;69202;45.498;-73.582;2023-08-24T02:00:10;6.53;;;5.32;;
79005;SDS011;69202;45.498;-73.582;2023-08-24T02:02:36;8.93;;;5.93;;
79005;SDS011;69202;45.498;-73.582;2023-08-24T02:05:02;9.27;;;5.45;;
79005;SDS011;69202;45.498;-73.582;2023-08-24T02:07:29;7.63;;;5.57;;
79005;SDS011;69202;45.498;-73.582;2023-08-24T02:09:55;11.02;;;5.55;;
79005;SDS011;69202;45.498;-73.582;2023-08-24T02:12:21;9.43;;;6.00;;
79005;SDS011;69202;45.498;-73.582;2023-08-24T02:14:47;9.98;;;5.72;;
79005;SDS011;69202;45.498;-73.582;2023-08-24T02:17:13;11.55;;;5.78;;
79005;SDS011;69202;45.498;-73.582;2023-08-24T02:19:39;9.25;;;6.13;;
79005;SDS011;69202;45.498;-73.582;2023-08-24T02:22:07;11.20;;;6.65;;
79005;SDS011;69202;45.498;-73.582;2023-08-24T02:24:33;11.38;;;6.00;;
79005;SDS011;69202;45.498;-73.582;2023-08-24T02:26:59;9.95;;;6.60;;
79005;SDS011;69202;45.498;-73.582;2023-08-24T02:29:25;8.75;;;6.03;;
79005;SDS011;69202;45.498;-73.582;2023-08-24T02:31:53;12.10;;;7.15;;
79005;SDS011;69202;45.498;-73.582;2023-08-24T02:34:19;10.30;;;5.78;;
79005;SDS011;69202;45.498;-73.582;2023-08-24T02:36:45;9.07;;;5.85;;
79005;SDS011;69202;45.498;-73.582;2023-08-24T02:39:10;11.90;;;6.18;;
79005;SDS011;69202;45.498;-73.582;2023-08-24T02:41:37;12.77;;;5.78;;
79005;SDS011;69202;45.498;-73.582;2023-08-24T02:44:03;14.25;;;6.88;;
79005;SDS011;69202;45.498;-73.582;2023-08-24T02:46:29;12.98;;;6.85;;
79005;SDS011;69202;45.498;-73.582;2023-08-24T02:48:55;8.63;;;6.28;;
79005;SDS011;69202;45.498;-73.582;2023-08-24T02:51:21;13.82;;;7.38;;
79005;SDS011;69202;45.498;-73.582;2023-08-24T02:53:48;10.45;;;6.25;;
79005;SDS011;69202;45.498;-73.582;2023-08-24T02:56:14;11.65;;;6.82;;
79005;SDS011;69202;45.498;-73.582;2023-08-24T02:58:40;8.75;;;6.28;;
79005;SDS011;69202;45.498;-73.582;2023-08-24T03:01:06;8.32;;;6.22;;
79005;SDS011;69202;45.498;-73.582;2023-08-24T03:03:36;8.20;;;6.68;;
79005;SDS011;69202;45.498;-73.582;2023-08-24T03:06:03;8.93;;;6.40;;
79005;SDS011;69202;45.498;-73.582;2023-08-24T03:08:31;8.20;;;6.60;;
79005;SDS011;69202;45.498;-73.582;2023-08-24T03:10:58;12.63;;;6.50;;
79005;SDS011;69202;45.498;-73.582;2023-08-24T03:13:25;8.85;;;6.45;;
79005;SDS011;69202;45.498;-73.582;2023-08-24T03:15:51;7.50;;;6.10;;
79005;SDS011;69202;45.498;-73.582;2023-08-24T03:18:20;9.18;;;6.28;;
79005;SDS011;69202;45.498;-73.582;2023-08-24T03:20:46;14.55;;;6.35;;
79005;SDS011;69202;45.498;-73.582;2023-08-24T03:23:13;9.60;;;6.85;;
79005;SDS011;69202;45.498;-73.582;2023-08-24T03:25:40;12.85;;;6.30;;
79005;SDS011;69202;45.498;-73.582;2023-08-24T03:28:07;7.82;;;6.20;;
79005;SDS011;69202;45.498;-73.582;2023-08-24T03:30:35;11.30;;;7.35;;
79005;SDS011;69202;45.498;-73.582;2023-08-24T03:33:01;10.75;;;6.00;;
79005;SDS011;69202;45.498;-73.582;2023-08-24T03:35:31;12.25;;;6.88;;
79005;SDS011;69202;45.498;-73.582;2023-08-24T03:37:58;8.40;;;6.40;;
79005;SDS011;69202;45.498;-73.582;2023-08-24T03:40:24;9.07;;;6.43;;
79005;SDS011;69202;45.498;-73.582;2023-08-24T03:42:50;10.52;;;6.32;;
79005;SDS011;69202;45.498;-73.582;2023-08-24T03:45:18;9.30;;;6.85;;
79005;SDS011;69202;45.498;-73.582;2023-08-24T03:47:44;8.65;;;6.13;;
79005;SDS011;69202;45.498;-73.582;2023-08-24T03:50:10;12.00;;;6.28;;
79005;SDS011;69202;45.498;-73.582;2023-08-24T03:52:36;6.97;;;6.13;;
79005;SDS011;69202;45.498;-73.582;2023-08-24T03:55:02;10.40;;;6.80;;
79005;SDS011;69202;45.498;-73.582;2023-08-24T03:57:28;10.25;;;6.80;;
79005;SDS011;69202;45.498;-73.582;2023-08-24T03:59:54;10.70;;;6.32;;
79005;SDS011;69202;45.498;-73.582;2023-08-24T04:02:19;8.50;;;6.43;;
79005;SDS011;69202;45.498;-73.582;2023-08-24T04:04:46;8.52;;;6.50;;
79005;SDS011;69202;45.498;-73.582;2023-08-24T04:07:11;12.25;;;7.55;;
79005;SDS011;69202;45.498;-73.582;2023-08-24T04:09:37;9.77;;;6.90;;
79005;SDS011;69202;45.498;-73.582;2023-08-24T04:12:03;16.30;;;6.88;;
79005;SDS011;69202;45.498;-73.582;2023-08-24T04:14:30;9.80;;;6.60;;
79005;SDS011;69202;45.498;-73.582;2023-08-24T04:16:55;10.68;;;7.05;;
79005;SDS011;69202;45.498;-73.582;2023-08-24T04:19:21;10.75;;;6.63;;
79005;SDS011;69202;45.498;-73.582;2023-08-24T04:21:48;14.25;;;7.13;;
79005;SDS011;69202;45.498;-73.582;2023-08-24T04:24:14;12.40;;;6.95;;
79005;SDS011;69202;45.498;-73.582;2023-08-24T04:26:40;12.20;;;6.45;;
79005;SDS011;69202;45.498;-73.582;2023-08-24T04:29:05;10.38;;;6.05;;
79005;SDS011;69202;45.498;-73.582;2023-08-24T04:31:32;7.90;;;6.60;;
79005;SDS011;69202;45.498;-73.582;2023-08-24T04:33:57;8.05;;;6.13;;
79005;SDS011;69202;45.498;-73.582;2023-08-24T04:36:23;9.70;;;6.70;;
79005;SDS011;69202;45.498;-73.582;2023-08-24T04:38:49;11.32;;;6.68;;
79005;SDS011;69202;45.498;-73.582;2023-08-24T04:41:15;8.55;;;5.72;;
79005;SDS011;69202;45.498;-73.582;2023-08-24T04:43:41;8.43;;;6.32;;
79005;SDS011;69202;45.498;-73.582;2023-08-24T04:46:07;10.57;;;6.47;;
79005;SDS011;69202;45.498;-73.582;2023-08-24T04:48:33;8.00;;;5.68;;
79005;SDS011;69202;45.498;-73.582;2023-08-24T04:51:00;7.03;;;5.78;;
79005;SDS011;69202;45.498;-73.582;2023-08-24T04:53:27;6.75;;;5.65;;
79005;SDS011;69202;45.498;-73.582;2023-08-24T04:55:53;9.82;;;6.10;;
79005;SDS011;69202;45.498;-73.582;2023-08-24T04:58:19;8.77;;;6.85;;
79005;SDS011;69202;45.498;-73.582;2023-08-24T05:00:45;8.30;;;6.55;;
79005;SDS011;69202;45.498;-73.582;2023-08-24T05:03:11;7.93;;;5.55;;
79005;SDS011;69202;45.498;-73.582;2023-08-24T05:05:38;9.35;;;6.28;;
79005;SDS011;69202;45.498;-73.582;2023-08-24T05:08:04;10.52;;;6.45;;
79005;SDS011;69202;45.498;-73.582;2023-08-24T05:10:32;9.18;;;6.30;;
79005;SDS011;69202;45.498;-73.582;2023-08-24T05:12:59;11.15;;;6.22;;
79005;SDS011;69202;45.498;-73.582;2023-08-24T05:15:25;13.00;;;6.47;;
79005;SDS011;69202;45.498;-73.582;2023-08-24T05:17:51;14.85;;;7.07;;
79005;SDS011;69202;45.498;-73.582;2023-08-24T05:20:20;9.23;;;6.85;;
79005;SDS011;69202;45.498;-73.582;2023-08-24T05:22:47;12.57;;;6.75;;
79005;SDS011;69202;45.498;-73.582;2023-08-24T05:25:13;10.15;;;6.53;;
79005;SDS011;69202;45.498;-73.582;2023-08-24T05:27:41;11.35;;;6.63;;
79005;SDS011;69202;45.498;-73.582;2023-08-24T05:30:07;8.18;;;6.70;;
79005;SDS011;69202;45.498;-73.582;2023-08-24T05:32:34;9.93;;;6.75;;
79005;SDS011;69202;45.498;-73.582;2023-08-24T05:35:07;9.20;;;6.57;;
79005;SDS011;69202;45.498;-73.582;2023-08-24T05:37:34;9.07;;;6.80;;
79005;SDS011;69202;45.498;-73.582;2023-08-24T05:40:00;9.57;;;6.45;;
79005;SDS011;69202;45.498;-73.582;2023-08-24T05:42:27;8.82;;;7.03;;
79005;SDS011;69202;45.498;-73.582;2023-08-24T05:44:53;12.10;;;7.18;;
79005;SDS011;69202;45.498;-73.582;2023-08-24T05:47:19;9.90;;;6.95;;
79005;SDS011;69202;45.498;-73.582;2023-08-24T05:49:45;13.23;;;7.60;;
79005;SDS011;69202;45.498;-73.582;2023-08-24T05:52:11;15.77;;;6.72;;
79005;SDS011;69202;45.498;-73.582;2023-08-24T05:54:37;16.48;;;7.68;;
79005;SDS011;69202;45.498;-73.582;2023-08-24T05:57:04;13.70;;;7.63;;
79005;SDS011;69202;45.498;-73.582;2023-08-24T05:59:30;10.00;;;7.05;;
79005;SDS011;69202;45.498;-73.582;2023-08-24T06:01:57;12.13;;;6.68;;
79005;SDS011;69202;45.498;-73.582;2023-08-24T06:04:23;14.25;;;6.57;;
79005;SDS011;69202;45.498;-73.582;2023-08-24T06:06:49;10.32;;;6.75;;
79005;SDS011;69202;45.498;-73.582;2023-08-24T06:09:14;11.68;;;6.53;;
79005;SDS011;69202;45.498;-73.582;2023-08-24T06:11:40;12.75;;;6.93;;
79005;SDS011;69202;45.498;-73.582;2023-08-24T06:14:07;15.23;;;7.30;;
79005;SDS011;69202;45.498;-73.582;2023-08-24T06:16:32;10.40;;;6.32;;
79005;SDS011;69202;45.498;-73.582;2023-08-24T06:18:58;10.77;;;7.13;;
79005;SDS011;69202;45.498;-73.582;2023-08-24T06:21:24;10.10;;;6.93;;
79005;SDS011;69202;45.498;-73.582;2023-08-24T06:23:50;14.63;;;6.90;;
79005;SDS011;69202;45.498;-73.582;2023-08-24T06:26:17;11.35;;;7.30;;
79005;SDS011;69202;45.498;-73.582;2023-08-24T06:28:43;11.52;;;6.28;;
79005;SDS011;69202;45.498;-73.582;2023-08-24T06:31:09;10.73;;;7.28;;
79005;SDS011;69202;45.498;-73.582;2023-08-24T06:33:35;11.13;;;7.15;;
79005;SDS011;69202;45.498;-73.582;2023-08-24T06:36:02;12.80;;;6.93;;
79005;SDS011;69202;45.498;-73.582;2023-08-24T06:38:32;10.15;;;6.50;;
79005;SDS011;69202;45.498;-73.582;2023-08-24T06:40:58;10.07;;;6.47;;
79005;SDS011;69202;45.498;-73.582;2023-08-24T06:43:25;10.50;;;6.53;;
79005;SDS011;69202;45.498;-73.582;2023-08-24T06:45:51;16.23;;;7.68;;
79005;SDS011;69202;45.498;-73.582;2023-08-24T06:48:17;7.97;;;5.68;;
79005;SDS011;69202;45.498;-73.582;2023-08-24T06:50:43;10.48;;;6.20;;
79005;SDS011;69202;45.498;-73.582;2023-08-24T06:53:09;12.20;;;6.75;;
79005;SDS011;69202;45.498;-73.582;2023-08-24T06:55:35;10.68;;;5.72;;
79005;SDS011;69202;45.498;-73.582;2023-08-24T06:58:02;8.50;;;5.90;;
79005;SDS011;69202;45.498;-73.582;2023-08-24T07:00:31;8.10;;;5.70;;
79005;SDS011;69202;45.498;-73.582;2023-08-24T07:02:58;8.23;;;6.30;;
79005;SDS011;69202;45.498;-73.582;2023-08-24T07:05:25;10.35;;;6.47;;
79005;SDS011;69202;45.498;-73.582;2023-08-24T07:07:51;9.70;;;6.18;;
79005;SDS011;69202;45.498;-73.582;2023-08-24T07:10:19;10.45;;;5.85;;
79005;SDS011;69202;45.498;-73.582;2023-08-24T07:12:45;10.18;;;6.00;;
79005;SDS011;69202;45.498;-73.582;2023-08-24T07:15:11;7.93;;;5.55;;
79005;SDS011;69202;45.498;-73.582;2023-08-24T07:17:38;10.88;;;5.82;;
79005;SDS011;69202;45.498;-73.582;2023-08-24T07:20:04;6.65;;;4.78;;
79005;SDS011;69202;45.498;-73.582;2023-08-24T07:22:32;7.65;;;5.15;;
79005;SDS011;69202;45.498;-73.582;2023-08-24T07:24:57;13.25;;;5.13;;
79005;SDS011;69202;45.498;-73.582;2023-08-24T07:27:24;8.23;;;5.40;;
79005;SDS011;69202;45.498;-73.582;2023-08-24T07:29:49;7.53;;;5.65;;
79005;SDS011;69202;45.498;-73.582;2023-08-24T07:32:15;6.90;;;5.38;;
79005;SDS011;69202;45.498;-73.582;2023-08-24T07:34:41;9.48;;;5.05;;
79005;SDS011;69202;45.498;-73.582;2023-08-24T07:37:07;8.65;;;5.07;;
79005;SDS011;69202;45.498;-73.582;2023-08-24T07:39:33;8.23;;;4.68;;
79005;SDS011;69202;45.498;-73.582;2023-08-24T07:41:59;5.82;;;4.90;;
79005;SDS011;69202;45.498;-73.582;2023-08-24T07:44:25;8.68;;;5.10;;
79005;SDS011;69202;45.498;-73.582;2023-08-24T07:46:51;6.10;;;4.47;;
79005;SDS011;69202;45.498;-73.582;2023-08-24T07:49:17;6.10;;;4.40;;
79005;SDS011;69202;45.498;-73.582;2023-08-24T07:51:43;6.82;;;4.00;;
79005;SDS011;69202;45.498;-73.582;2023-08-24T07:54:09;8.32;;;4.28;;
79005;SDS011;69202;45.498;-73.582;2023-08-24T07:56:35;8.93;;;4.00;;
79005;SDS011;69202;45.498;-73.582;2023-08-24T07:59:01;5.93;;;3.90;;
79005;SDS011;69202;45.498;-73.582;2023-08-24T08:01:27;6.03;;;3.85;;
79005;SDS011;69202;45.498;-73.582;2023-08-24T08:03:53;5.93;;;3.70;;
79005;SDS011;69202;45.498;-73.582;2023-08-24T08:06:19;4.82;;;3.90;;
79005;SDS011;69202;45.498;-73.582;2023-08-24T08:08:47;6.82;;;4.20;;
79005;SDS011;69202;45.498;-73.582;2023-08-24T08:11:15;8.18;;;4.40;;
79005;SDS011;69202;45.498;-73.582;2023-08-24T08:13:41;6.28;;;4.13;;
79005;SDS011;69202;45.498;-73.582;2023-08-24T08:16:07;6.78;;;4.28;;
79005;SDS011;69202;45.498;-73.582;2023-08-24T08:18:33;7.55;;;4.43;;
79005;SDS011;69202;45.498;-73.582;2023-08-24T08:21:01;4.53;;;4.07;;
79005;SDS011;69202;45.498;-73.582;2023-08-24T08:23:28;4.45;;;3.97;;
79005;SDS011;69202;45.498;-73.582;2023-08-24T08:25:54;4.65;;;3.88;;
79005;SDS011;69202;45.498;-73.582;2023-08-24T08:28:20;7.22;;;4.43;;
79005;SDS011;69202;45.498;-73.582;2023-08-24T08:30:47;5.13;;;4.05;;
79005;SDS011;69202;45.498;-73.582;2023-08-24T08:33:14;7.10;;;4.18;;
79005;SDS011;69202;45.498;-73.582;2023-08-24T08:35:40;6.90;;;4.20;;
79005;SDS011;69202;45.498;-73.582;2023-08-24T08:38:06;9.57;;;4.57;;
79005;SDS011;69202;45.498;-73.582;2023-08-24T08:40:38;8.93;;;4.82;;
79005;SDS011;69202;45.498;-73.582;2023-08-24T08:43:06;5.18;;;4.20;;
79005;SDS011;69202;45.498;-73.582;2023-08-24T08:45:32;5.40;;;4.13;;
79005;SDS011;69202;45.498;-73.582;2023-08-24T08:47:59;6.18;;;4.78;;
79005;SDS011;69202;45.498;-73.582;2023-08-24T08:50:26;6.57;;;4.43;;
79005;SDS011;69202;45.498;-73.582;2023-08-24T08:52:52;6.00;;;4.30;;
79005;SDS011;69202;45.498;-73.582;2023-08-24T08:55:18;6.10;;;3.75;;
79005;SDS011;69202;45.498;-73.582;2023-08-24T08:57:48;5.38;;;3.67;;
79005;SDS011;69202;45.498;-73.582;2023-08-24T09:00:17;7.25;;;3.88;;
79005;SDS011;69202;45.498;-73.582;2023-08-24T09:02:44;6.90;;;4.22;;
79005;SDS011;69202;45.498;-73.582;2023-08-24T09:05:14;4.22;;;3.83;;
79005;SDS011;69202;45.498;-73.582;2023-08-24T09:07:41;4.13;;;3.70;;
79005;SDS011;69202;45.498;-73.582;2023-08-24T09:10:07;5.30;;;4.50;;
79005;SDS011;69202;45.498;-73.582;2023-08-24T09:12:34;4.97;;;4.28;;
79005;SDS011;69202;45.498;-73.582;2023-08-24T09:15:04;8.48;;;4.28;;
79005;SDS011;69202;45.498;-73.582;2023-08-24T09:17:33;6.70;;;4.35;;
79005;SDS011;69202;45.498;-73.582;2023-08-24T09:19:59;11.48;;;4.70;;
79005;SDS011;69202;45.498;-73.582;2023-08-24T09:22:26;7.45;;;3.50;;
79005;SDS011;69202;45.498;-73.582;2023-08-24T09:24:52;6.18;;;3.80;;
79005;SDS011;69202;45.498;-73.582;2023-08-24T09:27:20;5.00;;;3.83;;
79005;SDS011;69202;45.498;-73.582;2023-08-24T09:29:47;7.43;;;3.88;;
79005;SDS011;69202;45.498;-73.582;2023-08-24T09:32:15;8.05;;;4.35;;
79005;SDS011;69202;45.498;-73.582;2023-08-24T09:34:47;8.77;;;3.80;;
79005;SDS011;69202;45.498;-73.582;2023-08-24T09:37:14;8.13;;;4.15;;
79005;SDS011;69202;45.498;-73.582;2023-08-24T09:39:40;7.07;;;3.97;;
79005;SDS011;69202;45.498;-73.582;2023-08-24T09:42:07;5.55;;;3.92;;
79005;SDS011;69202;45.498;-73.582;2023-08-24T09:44:33;12.35;;;4.45;;
79005;SDS011;69202;45.498;-73.582;2023-08-24T09:46:59;5.13;;;4.25;;
79005;SDS011;69202;45.498;-73.582;2023-08-24T09:49:25;8.98;;;4.40;;
79005;SDS011;69202;45.498;-73.582;2023-08-24T09:51:55;7.72;;;4.22;;
79005;SDS011;69202;45.498;-73.582;2023-08-24T09:54:26;12.35;;;4.70;;
79005;SDS011;69202;45.498;-73.582;2023-08-24T09:56:54;6.03;;;4.55;;
79005;SDS011;69202;45.498;-73.582;2023-08-24T09:59:23;5.47;;;4.30;;
79005;SDS011;69202;45.498;-73.582;2023-08-24T10:01:53;6.57;;;4.78;;
79005;SDS011;69202;45.498;-73.582;2023-08-24T10:04:25;7.88;;;4.93;;
79005;SDS011;69202;45.498;-73.582;2023-08-24T10:07:03;6.13;;;4.45;;
79005;SDS011;69202;45.498;-73.582;2023-08-24T10:09:38;9.07;;;5.13;;
79005;SDS011;69202;45.498;-73.582;2023-08-24T10:12:07;6.83;;;4.83;;
79005;SDS011;69202;45.498;-73.582;2023-08-24T10:17:29;8.43;;;5.38;;
79005;SDS011;69202;45.498;-73.582;2023-08-24T10:19:58;8.32;;;5.30;;
79005;SDS011;69202;45.498;-73.582;2023-08-24T10:22:30;9.45;;;5.25;;
79005;SDS011;69202;45.498;-73.582;2023-08-24T10:24:57;8.65;;;5.15;;
79005;SDS011;69202;45.498;-73.582;2023-08-24T10:27:23;8.57;;;5.35;;
79005;SDS011;69202;45.498;-73.582;2023-08-24T10:29:51;13.07;;;5.80;;
79005;SDS011;69202;45.498;-73.582;2023-08-24T10:32:17;9.95;;;5.57;;
79005;SDS011;69202;45.498;-73.582;2023-08-24T10:34:45;9.90;;;5.15;;
79005;SDS011;69202;45.498;-73.582;2023-08-24T10:37:11;10.15;;;5.63;;
79005;SDS011;69202;45.498;-73.582;2023-08-24T10:39:38;14.55;;;5.47;;
79005;SDS011;69202;45.498;-73.582;2023-08-24T10:42:11;11.75;;;4.90;;
79005;SDS011;69202;45.498;-73.582;2023-08-24T10:44:38;12.02;;;5.63;;
79005;SDS011;69202;45.498;-73.582;2023-08-24T10:47:16;10.60;;;5.57;;
79005;SDS011;69202;45.498;-73.582;2023-08-24T10:52:21;9.93;;;4.38;;
79005;SDS011;69202;45.498;-73.582;2023-08-24T10:54:47;12.68;;;4.75;;
79005;SDS011;69202;45.498;-73.582;2023-08-24T10:57:18;10.73;;;4.80;;
79005;SDS011;69202;45.498;-73.582;2023-08-24T10:59:56;6.90;;;4.20;;
79005;SDS011;69202;45.498;-73.582;2023-08-24T11:02:24;5.57;;;3.97;;
79005;SDS011;69202;45.498;-73.582;2023-08-24T11:05:03;14.20;;;4.88;;
79005;SDS011;69202;45.498;-73.582;2023-08-24T11:07:30;10.20;;;4.50;;
79005;SDS011;69202;45.498;-73.582;2023-08-24T11:09:56;7.10;;;4.25;;
79005;SDS011;69202;45.498;-73.582;2023-08-24T11:12:22;9.30;;;4.43;;
79005;SDS011;69202;45.498;-73.582;2023-08-24T11:14:49;6.03;;;3.70;;
79005;SDS011;69202;45.498;-73.582;2023-08-24T11:17:29;4.60;;;3.75;;
79005;SDS011;69202;45.498;-73.582;2023-08-24T11:19:59;17.20;;;4.45;;
79005;SDS011;69202;45.498;-73.582;2023-08-24T11:22:25;13.60;;;4.65;;
79005;SDS011;69202;45.498;-73.582;2023-08-24T11:24:52;7.63;;;3.90;;
79005;SDS011;69202;45.498;-73.582;2023-08-24T11:27:20;4.68;;;3.72;;
79005;SDS011;69202;45.498;-73.582;2023-08-24T11:29:46;5.65;;;3.70;;
79005;SDS011;69202;45.498;-73.582;2023-08-24T11:32:12;4.03;;;3.55;;
79005;SDS011;69202;45.498;-73.582;2023-08-24T11:34:38;9.15;;;4.00;;
79005;SDS011;69202;45.498;-73.582;2023-08-24T11:37:04;6.50;;;3.70;;
79005;SDS011;69202;45.498;-73.582;2023-08-24T11:39:30;3.97;;;3.25;;
79005;SDS011;69202;45.498;-73.582;2023-08-24T11:42:04;7.30;;;4.70;;
79005;SDS011;69202;45.498;-73.582;2023-08-24T11:44:46;8.50;;;3.97;;
79005;SDS011;69202;45.498;-73.582;2023-08-24T11:47:13;4.20;;;3.80;;
79005;SDS011;69202;45.498;-73.582;2023-08-24T11:49:40;6.25;;;3.88;;
79005;SDS011;69202;45.498;-73.582;2023-08-24T11:52:06;12.38;;;4.88;;
79005;SDS011;69202;45.498;-73.582;2023-08-24T11:54:33;8.20;;;4.10;;
79005;SDS011;69202;45.498;-73.582;2023-08-24T11:57:12;16.05;;;4.40;;
79005;SDS011;69202;45.498;-73.582;2023-08-24T11:59:38;8.80;;;4.10;;
79005;SDS011;69202;45.498;-73.582;2023-08-24T12:02:04;8.77;;;4.43;;
79005;SDS011;69202;45.498;-73.582;2023-08-24T12:04:40;19.00;;;5.55;;
79005;SDS011;69202;45.498;-73.582;2023-08-24T12:07:14;11.30;;;4.53;;
79005;SDS011;69202;45.498;-73.582;2023-08-24T12:09:43;11.48;;;5.43;;
79005;SDS011;69202;45.498;-73.582;2023-08-24T12:12:13;5.30;;;3.65;;
79005;SDS011;69202;45.498;-73.582;2023-08-24T12:14:41;5.10;;;3.92;;
79005;SDS011;69202;45.498;-73.582;2023-08-24T12:17:08;11.82;;;5.07;;
79005;SDS011;69202;45.498;-73.582;2023-08-24T12:19:34;11.05;;;5.10;;
79005;SDS011;69202;45.498;-73.582;2023-08-24T12:22:00;8.48;;;4.10;;
79005;SDS011;69202;45.498;-73.582;2023-08-24T12:24:26;10.35;;;4.82;;
79005;SDS011;69202;45.498;-73.582;2023-08-24T12:26:56;10.25;;;4.95;;
79005;SDS011;69202;45.498;-73.582;2023-08-24T12:29:28;10.98;;;5.15;;
79005;SDS011;69202;45.498;-73.582;2023-08-24T12:31:57;5.82;;;4.15;;
79005;SDS011;69202;45.498;-73.582;2023-08-24T12:34:23;9.80;;;5.22;;
79005;SDS011;69202;45.498;-73.582;2023-08-24T12:36:49;4.22;;;3.38;;
79005;SDS011;69202;45.498;-73.582;2023-08-24T12:39:16;15.15;;;6.32;;
79005;SDS011;69202;45.498;-73.582;2023-08-24T12:41:41;13.05;;;5.57;;
79005;SDS011;69202;45.498;-73.582;2023-08-24T12:44:07;13.00;;;6.40;;
79005;SDS011;69202;45.498;-73.582;2023-08-24T12:46:33;7.00;;;4.10;;
79005;SDS011;69202;45.498;-73.582;2023-08-24T12:49:02;16.10;;;5.53;;
79005;SDS011;69202;45.498;-73.582;2023-08-24T12:51:29;11.13;;;5.63;;
79005;SDS011;69202;45.498;-73.582;2023-08-24T12:53:55;6.32;;;3.97;;
79005;SDS011;69202;45.498;-73.582;2023-08-24T12:56:20;11.68;;;5.15;;
79005;SDS011;69202;45.498;-73.582;2023-08-24T12:58:46;8.05;;;4.47;;
79005;SDS011;69202;45.498;-73.582;2023-08-24T13:01:12;8.60;;;4.80;;
79005;SDS011;69202;45.498;-73.582;2023-08-24T13:03:38;12.40;;;5.57;;
79005;SDS011;69202;45.498;-73.582;2023-08-24T13:06:05;9.20;;;5.05;;
79005;SDS011;69202;45.498;-73.582;2023-08-24T13:08:31;12.05;;;5.22;;
79005;SDS011;69202;45.498;-73.582;2023-08-24T13:10:57;11.40;;;5.32;;
79005;SDS011;69202;45.498;-73.582;2023-08-24T13:13:23;6.40;;;3.72;;
79005;SDS011;69202;45.498;-73.582;2023-08-24T13:15:49;5.78;;;3.65;;
79005;SDS011;69202;45.498;-73.582;2023-08-24T13:18:16;14.60;;;5.03;;
79005;SDS011;69202;45.498;-73.582;2023-08-24T13:20:42;13.65;;;5.15;;
79005;SDS011;69202;45.498;-73.582;2023-08-24T13:23:08;10.32;;;5.28;;
79005;SDS011;69202;45.498;-73.582;2023-08-24T13:25:34;11.05;;;4.97;;
79005;SDS011;69202;45.498;-73.582;2023-08-24T13:28:01;11.00;;;5.30;;
79005;SDS011;69202;45.498;-73.582;2023-08-24T13:30:27;16.40;;;5.40;;
79005;SDS011;69202;45.498;-73.582;2023-08-24T13:32:53;13.13;;;5.25;;
79005;SDS011;69202;45.498;-73.582;2023-08-24T13:35:19;15.30;;;4.97;;
79005;SDS011;69202;45.498;-73.582;2023-08-24T13:37:45;5.65;;;3.75;;
79005;SDS011;69202;45.498;-73.582;2023-08-24T13:40:12;11.32;;;6.05;;
79005;SDS011;69202;45.498;-73.582;2023-08-24T13:42:38;9.60;;;5.25;;
79005;SDS011;69202;45.498;-73.582;2023-08-24T13:45:04;10.95;;;4.65;;
79005;SDS011;69202;45.498;-73.582;2023-08-24T13:47:30;5.57;;;3.67;;
79005;SDS011;69202;45.498;-73.582;2023-08-24T13:49:57;4.70;;;3.40;;
79005;SDS011;69202;45.498;-73.582;2023-08-24T13:52:23;9.65;;;4.88;;
79005;SDS011;69202;45.498;-73.582;2023-08-24T13:54:49;12.05;;;5.05;;
79005;SDS011;69202;45.498;-73.582;2023-08-24T13:57:15;6.32;;;4.25;;
79005;SDS011;69202;45.498;-73.582;2023-08-24T13:59:41;7.45;;;4.30;;
79005;SDS011;69202;45.498;-73.582;2023-08-24T14:02:07;7.65;;;4.15;;
79005;SDS011;69202;45.498;-73.582;2023-08-24T14:04:33;8.45;;;4.47;;
79005;SDS011;69202;45.498;-73.582;2023-08-24T14:06:59;11.15;;;4.65;;
79005;SDS011;69202;45.498;-73.582;2023-08-24T14:09:25;7.13;;;3.90;;
79005;SDS011;69202;45.498;-73.582;2023-08-24T14:11:51;12.15;;;5.28;;
79005;SDS011;69202;45.498;-73.582;2023-08-24T14:14:17;9.77;;;4.75;;
79005;SDS011;69202;45.498;-73.582;2023-08-24T14:16:45;9.63;;;4.20;;
79005;SDS011;69202;45.498;-73.582;2023-08-24T14:19:11;8.80;;;5.22;;
79005;SDS011;69202;45.498;-73.582;2023-08-24T14:21:37;12.05;;;4.82;;
79005;SDS011;69202;45.498;-73.582;2023-08-24T14:24:06;8.98;;;4.93;;
79005;SDS011;69202;45.498;-73.582;2023-08-24T14:26:32;5.75;;;4.03;;
79005;SDS011;69202;45.498;-73.582;2023-08-24T14:28:58;9.60;;;5.40;;
79005;SDS011;69202;45.498;-73.582;2023-08-24T14:31:24;5.65;;;4.22;;